• Join FlightAware (Why Join?)
  • Login
  • US Flag 
04:09AM EDT


 

Airport Tracker/Info


-or-


 

Live Flight TrackerFlight Track Log ✈ ASH3770 ✈ 10-May-2013 ✈ KORD - KBDL

Flight Track Log - Related Links

Times and Time Zones

All times are in EDT time to prevent confusion due to time zone crossing. See the ASH3770 flight status page for this flight to view local times or setup timezone preferences in your user account.

Time Position Orientation Groundspeed Altitude Reporting Facility
EDT Latitude Longitude Course Direction KTS MPH feet Rate Location/Type
10:41PM 42.0000 -87.8667 77° East 147 169 2,500  Level Chicago TRACON
10:42PM 42.0167 -87.8000 71° East 201 231 4,600 2,100 Climbing Chicago TRACON
10:43PM 42.0333 -87.7167 75° East 267 307 6,700 2,460 Climbing Chicago TRACON
10:44PM 42.0497 -87.5533 82° East 280 322 11,300 2,580 Climbing Chicago Center
10:45PM 42.0644 -87.4428 80° East 293 337 13,800 2,100 Climbing Chicago Center
10:46PM 42.0886 -87.1182 77° East  Level FlightAware Approximate
10:46PM 42.0789 -87.3186 81° East 323 372 15,700  Level Chicago Center
10:47PM 42.0997 -87.1553 80° East 360 414 18,000 2,160 Climbing Chicago Center
10:48PM 42.1156 -87.0153 81° East 375 432 20,200 1,860 Climbing Chicago Center
10:49PM 42.1194 -86.8644 88° East 395 455 21,900 1,800 Climbing Chicago Center
10:50PM 42.1239 -86.7089 88° East 410 472 23,900 1,800 Climbing Chicago Center
10:51PM 42.1300 -86.5453 87° East 422 486 25,600 1,620 Climbing Chicago Center
10:52PM 42.1353 -86.3825 87° East 432 497 27,300 1,440 Climbing Chicago Center
10:53PM 42.1397 -86.2175 88° East 439 505 28,600 1,140 Climbing Chicago Center
10:54PM 42.1428 -86.0472 89° East 450 518 29,700 1,200 Climbing Chicago Center
10:55PM 42.1408 -85.8536 91° East 461 531 31,100 1,200 Climbing Chicago Center
10:57PM 42.1394 -85.6803 91° East 467 537 32,200 1,020 Climbing Chicago Center
10:58PM 42.1375 -85.5039 91° East 475 547 33,200 1,080 Climbing Chicago Center
10:58PM 42.1397 -85.3639 89° East 464 534 34,100 660 Climbing Cleveland Center
10:59PM 42.1389 -85.1817 90° East 469 540 34,400 420 Climbing Cleveland Center
11:00PM 42.1356 -84.9967 91° East 481 554 35,000 540 Climbing Cleveland Center
11:01PM 42.1431 -84.8011 87° East 500 575 35,500 420 Climbing Cleveland Center
11:02PM 42.1533 -84.6308 85° East 507 583 35,900 420 Climbing Cleveland Center
11:03PM 42.1683 -84.4383 84° East 517 595 36,400 480 Climbing Cleveland Center
11:04PM 42.1850 -84.2458 83° East 517 595 36,900 240 Climbing Cleveland Center
11:05PM 42.1994 -84.0533 84° East 517 595 37,000  Climbing Cleveland Center
11:06PM 42.2153 -83.8608 84° East 517 595 37,000  Level Cleveland Center
11:07PM 42.2292 -83.6678 84° East 517 595 37,000  Level Cleveland Center
11:08PM 42.2467 -83.4753 83° East 517 595 37,000  Level Cleveland Center
11:09PM 42.2597 -83.2794 85° East 517 595 37,000  Level Cleveland Center
11:10PM 42.2750 -83.0667 84° East 517 595 37,000  Level Cleveland Center
11:11PM 42.2872 -82.8736 85° East 517 595 37,000  Level Cleveland Center
11:12PM 42.3014 -82.6831 84° East 517 595 37,000  Level Cleveland Center
11:13PM 42.3131 -82.4897 85° East 517 595 37,000  Level Cleveland Center
11:14PM 42.3244 -82.2992 85° East 517 595 37,000  Level Cleveland Center
11:15PM 42.3397 -82.1083 84° East 517 595 37,000  Level Cleveland Center
11:16PM 42.3525 -81.9178 85° East 517 595 37,000  Level Cleveland Center
11:17PM 42.3650 -81.7211 85° East 517 595 37,000  Level Cleveland Center
11:18PM 42.3750 -81.5331 86° East 517 595 37,000  Level Cleveland Center
11:19PM 42.3825 -81.3589 87° East 517 595 37,000  Level Cleveland Center
11:20PM 42.3942 -81.1622 85° East 517 595 37,000  Level Cleveland Center
11:21PM 42.4033 -80.9683 86° East 517 595 37,000  Level Cleveland Center
11:22PM 42.4164 -80.7772 85° East 517 595 37,000  Level Cleveland Center
11:23PM 42.4269 -80.5889 86° East 509 586 37,000  Level Cleveland Center
11:24PM 42.4331 -80.3892 88° East 519 597 37,000  Level Cleveland Center
11:25PM 42.4450 -80.1836 85° East 514 592 37,000  Level Cleveland Center
11:26PM 42.4503 -79.9894 88° East 514 592 37,000  Level Cleveland Center
11:27PM 42.4597 -79.7981 86° East 514 592 37,000  Level Cleveland Center
11:28PM 42.4686 -79.6206 86° East 514 592 37,000  Level Cleveland Center
11:29PM 42.4775 -79.4261 86° East 519 597 37,000  Level Cleveland Center
11:30PM 42.4836 -79.2317 87° East 519 597 37,000  Level Cleveland Center
11:31PM 42.4917 -79.0372 87° East 519 597 37,000  Level Cleveland Center
11:32PM 42.4972 -78.8428 88° East 519 597 37,000  Level Cleveland Center
11:33PM 42.5044 -78.6456 87° East 519 597 37,000  Level Cleveland Center
11:34PM 42.5094 -78.4511 88° East 519 597 37,000  Level Cleveland Center
11:35PM 42.5158 -78.2536 87° East 519 597 37,000  Level Cleveland Center
11:36PM 42.5203 -78.0589 88° East 519 597 37,000  Level Cleveland Center
11:37PM 42.5242 -77.8672 88° East 519 597 37,000  Level Cleveland Center
11:38PM 42.5297 -77.6725 88° East 519 597 37,000 -60 Level Cleveland Center
11:39PM 42.5325 -77.4528 89° East 524 603 36,900 -420 Descending Cleveland Center
11:42PM 42.5431 -76.9808 88° East 522 601 35,700 -540 Descending Boston Center
11:43PM 42.5486 -76.7836 88° East 522 601 35,200 -360 Descending Boston Center
11:44PM 42.5500 -76.5808 89° East 527 606 35,000 -120 Descending Boston Center
11:45PM 42.5528 -76.3836 89° East 527 606 35,000  Level Boston Center
11:46PM 42.5561 -76.1639 89° East 527 606 35,000 -240 Level Boston Center
11:47PM 42.5353 -75.9681 98° East 527 606 34,600 -480 Descending Boston Center
11:48PM 42.5017 -75.7692 103° East 532 612 34,100 -540 Descending Boston Center
11:49PM 42.4697 -75.5758 103° East 532 612 33,600 -540 Descending Boston Center
11:50PM 42.4372 -75.3856 103° East 525 604 33,100 -540 Descending Boston Center
11:51PM 42.4025 -75.1956 104° East 520 598 32,600 -540 Descending Boston Center
11:52PM 42.3672 -75.0003 104° East 520 598 32,100 -540 Descending Boston Center
11:53PM 42.3339 -74.8106 103° East 520 598 31,600 -780 Descending Boston Center
11:54PM 42.3003 -74.6211 103° East 520 598 30,600 -1,500 Descending Boston Center
11:55PM 42.2661 -74.4292 103° East 520 598 28,600 -2,100 Descending Boston Center
11:56PM 42.2358 -74.2544 103° East 501 577 26,500 -2,040 Descending Boston Center
11:57PM 42.2050 -74.0853 104° East 479 551 24,600 -2,160 Descending Boston Center
11:58PM 42.1739 -73.9192 104° East 466 536 22,200 -3,000 Descending Boston Center
11:59PM 42.1447 -73.7533 103° East 454 522 18,700 -3,600 Descending Boston Center
12:00AM 42.1153 -73.6044 105° East 439 505 15,100 -3,540 Descending Boston Center
12:01AM 42.0872 -73.4694 106° East 412 474 12,000 -2,520 Descending Boston Center
12:01AM 42.0714 -73.3742 103° East 395 455 11,100 -960 Descending Boston Center
12:02AM 42.0636 -73.3125 100° East 392 451 11,000 -120 Descending Boston Center
12:02AM 42.0453 -73.2342 107° East 385 443 11,000  Level Boston Center
12:03AM 42.0353 -73.1781 103° East 384 442 11,000 -120 Level Boston Center
12:03AM 42.0275 -73.1053 98° East 342 394 10,900 -540 Descending Boston Center
12:04AM 42.0319 -73.0689 81° East 346 398 10,500 -2,400 Descending Boston Center
12:04AM 42.0406 -72.9853 82° East 309 356 8,500 -2,700 Descending Boston Center
12:05AM 42.0469 -72.9489 77° East 306 352 7,800 -2,460 Descending Boston Center
12:05AM 42.0558 -72.8736 81° East 299 344 6,000 -2,520 Descending Boston Center
12:06AM 42.0578 -72.8400 86° East 295 339 5,300 -2,460 Descending Boston Center
12:07AM 42.0686 -72.7617 79° East 285 328 3,300 -2,220 Descending Boston Center
12:07AM 42.0728 -72.7339 79° East 295 339 3,100 -300 Descending Boston Center
12:08AM 42.0772 -72.6583 85° East 279 321 3,000 -60 Descending Boston Center
12:09AM 42.0731 -72.5658 93° East 232 267 3,000 -360 Level Boston Center
12:10AM 42.0314 -72.5631 177° South 173 199 2,300 -720 Descending Boston Center
12:11AM 42.0044 -72.6050 229° Southwest 146 168 1,600 -660 Descending Boston Center
12:11AM 41.9792 -72.6328 219° Southwest 128 147 1,100 -600 Descending Boston Center
12:12AM 41.9750 -72.6411 236° Southwest 128 147 900 -720 Descending Boston Center
12:12AM 41.9522 -72.6661 219° Southwest 127 146 400 -600 Descending Boston Center
12:13AM 41.9478 -72.6775 242° Southwest 133 153 300 -120 Descending Boston Center
12:14AM 41.9250 -72.7081 225° Southwest 133 153 300 9,300 Level Boston Center
12:15AM 41.8997 -72.7442 227° Southwest 133 153 19,000 18,660 Climbing Boston Center